sensor_id;sensor_type;location;lat;lon;timestamp;temperature;humidity
30250;DHT22;17064;47.974;13.826;2023-08-12T00:01:22;14.70;99.90
30250;DHT22;17064;47.974;13.826;2023-08-12T00:06:25;14.60;99.90
30250;DHT22;17064;47.974;13.826;2023-08-12T00:11:26;14.50;99.90
30250;DHT22;17064;47.974;13.826;2023-08-12T00:16:27;14.50;99.90
30250;DHT22;17064;47.974;13.826;2023-08-12T00:21:28;14.50;99.90
30250;DHT22;17064;47.974;13.826;2023-08-12T00:26:29;14.40;99.90
30250;DHT22;17064;47.974;13.826;2023-08-12T00:31:30;14.30;99.90
30250;DHT22;17064;47.974;13.826;2023-08-12T00:36:31;14.30;99.90
30250;DHT22;17064;47.974;13.826;2023-08-12T00:41:31;14.20;99.90
30250;DHT22;17064;47.974;13.826;2023-08-12T00:46:33;14.20;99.90
30250;DHT22;17064;47.974;13.826;2023-08-12T00:51:35;14.10;99.90
30250;DHT22;17064;47.974;13.826;2023-08-12T00:56:36;14.00;99.90
30250;DHT22;17064;47.974;13.826;2023-08-12T01:01:40;14.00;99.90
30250;DHT22;17064;47.974;13.826;2023-08-12T01:06:42;13.90;99.90
30250;DHT22;17064;47.974;13.826;2023-08-12T01:12:01;13.90;99.90
30250;DHT22;17064;47.974;13.826;2023-08-12T01:17:06;13.80;99.90
30250;DHT22;17064;47.974;13.826;2023-08-12T01:22:11;13.70;99.90
30250;DHT22;17064;47.974;13.826;2023-08-12T01:27:13;13.60;99.90
30250;DHT22;17064;47.974;13.826;2023-08-12T01:37:35;13.50;99.90
30250;DHT22;17064;47.974;13.826;2023-08-12T01:42:36;13.50;99.90
30250;DHT22;17064;47.974;13.826;2023-08-12T01:47:39;13.40;99.90
30250;DHT22;17064;47.974;13.826;2023-08-12T01:52:43;13.40;99.90
30250;DHT22;17064;47.974;13.826;2023-08-12T01:57:43;13.30;99.90
30250;DHT22;17064;47.974;13.826;2023-08-12T02:02:44;13.30;99.90
30250;DHT22;17064;47.974;13.826;2023-08-12T02:07:48;13.10;99.90
30250;DHT22;17064;47.974;13.826;2023-08-12T02:12:49;13.10;99.90
30250;DHT22;17064;47.974;13.826;2023-08-12T02:17:49;13.00;99.90
30250;DHT22;17064;47.974;13.826;2023-08-12T02:22:50;12.90;99.90
30250;DHT22;17064;47.974;13.826;2023-08-12T02:27:51;12.80;99.90
30250;DHT22;17064;47.974;13.826;2023-08-12T02:32:52;12.70;99.90
30250;DHT22;17064;47.974;13.826;2023-08-12T02:37:53;12.70;99.90
30250;DHT22;17064;47.974;13.826;2023-08-12T02:42:54;12.70;99.90
30250;DHT22;17064;47.974;13.826;2023-08-12T02:47:54;12.60;99.90
30250;DHT22;17064;47.974;13.826;2023-08-12T02:52:55;12.50;99.90
30250;DHT22;17064;47.974;13.826;2023-08-12T02:57:56;12.50;99.90
30250;DHT22;17064;47.974;13.826;2023-08-12T03:02:57;12.40;99.90
30250;DHT22;17064;47.974;13.826;2023-08-12T03:07:57;12.40;99.90
30250;DHT22;17064;47.974;13.826;2023-08-12T03:13:01;12.30;99.90
30250;DHT22;17064;47.974;13.826;2023-08-12T03:18:02;12.30;99.90
30250;DHT22;17064;47.974;13.826;2023-08-12T03:23:03;12.20;99.90
30250;DHT22;17064;47.974;13.826;2023-08-12T03:28:04;12.20;99.90
30250;DHT22;17064;47.974;13.826;2023-08-12T03:33:05;12.10;99.90
30250;DHT22;17064;47.974;13.826;2023-08-12T03:38:05;12.10;99.90
30250;DHT22;17064;47.974;13.826;2023-08-12T03:43:06;12.10;99.90
30250;DHT22;17064;47.974;13.826;2023-08-12T03:48:07;12.10;99.90
30250;DHT22;17064;47.974;13.826;2023-08-12T03:53:08;12.10;99.90
30250;DHT22;17064;47.974;13.826;2023-08-12T03:58:09;12.00;99.90
30250;DHT22;17064;47.974;13.826;2023-08-12T04:03:10;11.90;99.90
30250;DHT22;17064;47.974;13.826;2023-08-12T04:08:10;11.90;99.90
30250;DHT22;17064;47.974;13.826;2023-08-12T04:13:11;11.90;99.90
30250;DHT22;17064;47.974;13.826;2023-08-12T04:18:12;11.90;99.90
30250;DHT22;17064;47.974;13.826;2023-08-12T04:23:13;11.90;99.90
30250;DHT22;17064;47.974;13.826;2023-08-12T04:28:15;11.80;99.90
30250;DHT22;17064;47.974;13.826;2023-08-12T04:33:16;11.90;99.90
30250;DHT22;17064;47.974;13.826;2023-08-12T04:38:16;12.00;99.90
30250;DHT22;17064;47.974;13.826;2023-08-12T04:43:18;12.00;99.90
30250;DHT22;17064;47.974;13.826;2023-08-12T04:48:19;12.00;99.90
30250;DHT22;17064;47.974;13.826;2023-08-12T04:53:20;12.10;99.90
30250;DHT22;17064;47.974;13.826;2023-08-12T04:58:20;12.30;99.90
30250;DHT22;17064;47.974;13.826;2023-08-12T05:03:21;12.50;99.90
30250;DHT22;17064;47.974;13.826;2023-08-12T05:08:22;12.70;99.90
30250;DHT22;17064;47.974;13.826;2023-08-12T05:13:23;12.90;99.90
30250;DHT22;17064;47.974;13.826;2023-08-12T05:18:24;13.10;99.90
30250;DHT22;17064;47.974;13.826;2023-08-12T05:23:25;13.30;99.90
30250;DHT22;17064;47.974;13.826;2023-08-12T05:28:25;13.60;99.90
30250;DHT22;17064;47.974;13.826;2023-08-12T05:33:26;13.80;99.90
30250;DHT22;17064;47.974;13.826;2023-08-12T05:38:27;14.10;99.90
30250;DHT22;17064;47.974;13.826;2023-08-12T05:43:27;14.30;99.90
30250;DHT22;17064;47.974;13.826;2023-08-12T05:48:28;14.50;99.90
30250;DHT22;17064;47.974;13.826;2023-08-12T05:53:29;14.80;99.90
30250;DHT22;17064;47.974;13.826;2023-08-12T05:58:30;15.00;99.90
30250;DHT22;17064;47.974;13.826;2023-08-12T06:03:30;15.30;99.90
30250;DHT22;17064;47.974;13.826;2023-08-12T06:08:31;15.60;99.90
30250;DHT22;17064;47.974;13.826;2023-08-12T06:13:32;15.80;99.90
30250;DHT22;17064;47.974;13.826;2023-08-12T06:18:33;16.10;99.90
30250;DHT22;17064;47.974;13.826;2023-08-12T06:23:33;16.40;99.90
30250;DHT22;17064;47.974;13.826;2023-08-12T06:28:34;16.60;99.90
30250;DHT22;17064;47.974;13.826;2023-08-12T06:33:35;16.90;99.90
30250;DHT22;17064;47.974;13.826;2023-08-12T06:38:36;17.10;99.90
30250;DHT22;17064;47.974;13.826;2023-08-12T06:43:37;17.30;99.90
30250;DHT22;17064;47.974;13.826;2023-08-12T06:48:37;17.50;99.90
30250;DHT22;17064;47.974;13.826;2023-08-12T06:53:39;17.80;99.90
30250;DHT22;17064;47.974;13.826;2023-08-12T06:58:40;18.00;99.90
30250;DHT22;17064;47.974;13.826;2023-08-12T07:03:40;18.30;99.90
30250;DHT22;17064;47.974;13.826;2023-08-12T07:08:41;18.50;99.90
30250;DHT22;17064;47.974;13.826;2023-08-12T07:13:42;18.70;99.90
30250;DHT22;17064;47.974;13.826;2023-08-12T07:18:46;18.90;99.90
30250;DHT22;17064;47.974;13.826;2023-08-12T07:23:47;19.20;99.90
30250;DHT22;17064;47.974;13.826;2023-08-12T07:28:48;19.40;99.90
30250;DHT22;17064;47.974;13.826;2023-08-12T07:33:48;19.80;99.90
30250;DHT22;17064;47.974;13.826;2023-08-12T07:38:49;20.10;99.90
30250;DHT22;17064;47.974;13.826;2023-08-12T07:43:50;20.40;99.90
30250;DHT22;17064;47.974;13.826;2023-08-12T07:48:50;20.70;99.90
30250;DHT22;17064;47.974;13.826;2023-08-12T07:53:51;20.90;99.90
30250;DHT22;17064;47.974;13.826;2023-08-12T07:58:52;21.30;99.90
30250;DHT22;17064;47.974;13.826;2023-08-12T08:03:53;21.60;99.90
30250;DHT22;17064;47.974;13.826;2023-08-12T08:08:54;21.90;99.90
30250;DHT22;17064;47.974;13.826;2023-08-12T08:13:56;21.90;99.90
30250;DHT22;17064;47.974;13.826;2023-08-12T08:18:57;22.20;99.90
30250;DHT22;17064;47.974;13.826;2023-08-12T08:23:58;22.40;99.90
30250;DHT22;17064;47.974;13.826;2023-08-12T08:28:59;22.80;99.90
30250;DHT22;17064;47.974;13.826;2023-08-12T08:33:59;23.00;99.90
30250;DHT22;17064;47.974;13.826;2023-08-12T08:39:01;23.30;99.90
30250;DHT22;17064;47.974;13.826;2023-08-12T08:44:07;23.60;99.90
30250;DHT22;17064;47.974;13.826;2023-08-12T08:49:08;23.80;99.90
30250;DHT22;17064;47.974;13.826;2023-08-12T08:54:10;23.90;99.90
30250;DHT22;17064;47.974;13.826;2023-08-12T08:59:11;24.00;99.90
30250;DHT22;17064;47.974;13.826;2023-08-12T09:04:13;24.20;99.90
30250;DHT22;17064;47.974;13.826;2023-08-12T09:09:14;24.50;99.90
30250;DHT22;17064;47.974;13.826;2023-08-12T09:14:16;24.70;99.90
30250;DHT22;17064;47.974;13.826;2023-08-12T09:19:17;24.90;99.90
30250;DHT22;17064;47.974;13.826;2023-08-12T09:24:26;25.30;99.90
30250;DHT22;17064;47.974;13.826;2023-08-12T09:29:32;25.50;99.40
30250;DHT22;17064;47.974;13.826;2023-08-12T09:34:33;25.70;98.90
30250;DHT22;17064;47.974;13.826;2023-08-12T09:39:34;26.00;98.40
30250;DHT22;17064;47.974;13.826;2023-08-12T09:44:38;26.20;97.90
30250;DHT22;17064;47.974;13.826;2023-08-12T09:49:39;26.20;97.60
30250;DHT22;17064;47.974;13.826;2023-08-12T09:54:41;26.40;96.20
30250;DHT22;17064;47.974;13.826;2023-08-12T09:59:42;26.60;96.70
30250;DHT22;17064;47.974;13.826;2023-08-12T10:04:48;26.50;95.80
30250;DHT22;17064;47.974;13.826;2023-08-12T10:09:51;26.70;95.40
30250;DHT22;17064;47.974;13.826;2023-08-12T10:14:52;27.00;93.80
30250;DHT22;17064;47.974;13.826;2023-08-12T10:20:01;27.10;93.80
30250;DHT22;17064;47.974;13.826;2023-08-12T10:25:03;27.10;94.40
30250;DHT22;17064;47.974;13.826;2023-08-12T10:30:05;27.30;92.90
30250;DHT22;17064;47.974;13.826;2023-08-12T10:35:08;27.30;94.80
30250;DHT22;17064;47.974;13.826;2023-08-12T10:40:20;27.50;93.70
30250;DHT22;17064;47.974;13.826;2023-08-12T10:45:21;27.70;93.40
30250;DHT22;17064;47.974;13.826;2023-08-12T10:50:23;27.60;90.70
30250;DHT22;17064;47.974;13.826;2023-08-12T10:55:27;27.50;92.20
30250;DHT22;17064;47.974;13.826;2023-08-12T11:00:29;27.50;90.20
30250;DHT22;17064;47.974;13.826;2023-08-12T11:05:37;27.60;91.50
30250;DHT22;17064;47.974;13.826;2023-08-12T11:10:38;27.60;90.40
30250;DHT22;17064;47.974;13.826;2023-08-12T11:15:47;27.70;92.50
30250;DHT22;17064;47.974;13.826;2023-08-12T11:20:49;28.00;91.70
30250;DHT22;17064;47.974;13.826;2023-08-12T11:25:50;28.00;90.30
30250;DHT22;17064;47.974;13.826;2023-08-12T11:30:52;28.20;90.40
30250;DHT22;17064;47.974;13.826;2023-08-12T11:35:52;28.30;90.80
30250;DHT22;17064;47.974;13.826;2023-08-12T11:40:53;28.30;90.20
30250;DHT22;17064;47.974;13.826;2023-08-12T11:45:55;28.30;90.80
30250;DHT22;17064;47.974;13.826;2023-08-12T11:50:57;28.40;89.80
30250;DHT22;17064;47.974;13.826;2023-08-12T11:55:58;28.40;89.80
30250;DHT22;17064;47.974;13.826;2023-08-12T12:00:59;28.30;89.10
30250;DHT22;17064;47.974;13.826;2023-08-12T12:05:59;28.20;86.80
30250;DHT22;17064;47.974;13.826;2023-08-12T12:11:07;28.30;89.00
30250;DHT22;17064;47.974;13.826;2023-08-12T12:16:11;28.30;85.10
30250;DHT22;17064;47.974;13.826;2023-08-12T12:21:12;28.30;87.50
30250;DHT22;17064;47.974;13.826;2023-08-12T12:26:20;28.40;85.90
30250;DHT22;17064;47.974;13.826;2023-08-12T12:31:23;28.40;80.40
30250;DHT22;17064;47.974;13.826;2023-08-12T12:36:24;28.30;85.30
30250;DHT22;17064;47.974;13.826;2023-08-12T12:41:24;28.50;79.60
30250;DHT22;17064;47.974;13.826;2023-08-12T12:46:25;28.50;78.30
30250;DHT22;17064;47.974;13.826;2023-08-12T12:51:26;28.60;82.80
30250;DHT22;17064;47.974;13.826;2023-08-12T12:56:27;28.50;77.90
30250;DHT22;17064;47.974;13.826;2023-08-12T13:01:29;28.40;76.00
30250;DHT22;17064;47.974;13.826;2023-08-12T13:06:30;28.60;77.80
30250;DHT22;17064;47.974;13.826;2023-08-12T13:11:32;28.60;74.90
30250;DHT22;17064;47.974;13.826;2023-08-12T13:16:33;28.70;76.70
30250;DHT22;17064;47.974;13.826;2023-08-12T14:03:14;28.30;70.30
30250;DHT22;17064;47.974;13.826;2023-08-12T14:08:14;28.10;73.20
30250;DHT22;17064;47.974;13.826;2023-08-12T14:13:15;28.10;69.50
30250;DHT22;17064;47.974;13.826;2023-08-12T14:18:16;27.90;72.60
30250;DHT22;17064;47.974;13.826;2023-08-12T14:23:17;27.90;73.50
30250;DHT22;17064;47.974;13.826;2023-08-12T14:28:17;27.80;72.20
30250;DHT22;17064;47.974;13.826;2023-08-12T14:33:18;27.80;74.70
30250;DHT22;17064;47.974;13.826;2023-08-12T14:38:19;27.70;75.80
30250;DHT22;17064;47.974;13.826;2023-08-12T14:43:20;27.60;73.20
30250;DHT22;17064;47.974;13.826;2023-08-12T14:48:20;27.60;72.20
30250;DHT22;17064;47.974;13.826;2023-08-12T14:53:21;27.60;74.20
30250;DHT22;17064;47.974;13.826;2023-08-12T14:58:22;27.60;75.20
30250;DHT22;17064;47.974;13.826;2023-08-12T15:03:22;27.60;69.80
30250;DHT22;17064;47.974;13.826;2023-08-12T15:08:23;27.70;71.80
30250;DHT22;17064;47.974;13.826;2023-08-12T15:13:24;27.70;72.00
30250;DHT22;17064;47.974;13.826;2023-08-12T15:18:25;27.70;71.40
30250;DHT22;17064;47.974;13.826;2023-08-12T15:23:26;27.70;70.60
30250;DHT22;17064;47.974;13.826;2023-08-12T15:28:26;27.70;74.90
30250;DHT22;17064;47.974;13.826;2023-08-12T15:33:27;27.70;74.60
30250;DHT22;17064;47.974;13.826;2023-08-12T15:38:28;27.70;76.80
30250;DHT22;17064;47.974;13.826;2023-08-12T15:43:28;27.60;73.40
30250;DHT22;17064;47.974;13.826;2023-08-12T15:48:29;27.50;75.00
30250;DHT22;17064;47.974;13.826;2023-08-12T15:53:30;27.30;76.80
30250;DHT22;17064;47.974;13.826;2023-08-12T15:58:31;27.10;79.70
30250;DHT22;17064;47.974;13.826;2023-08-12T16:03:31;26.90;80.70
30250;DHT22;17064;47.974;13.826;2023-08-12T16:08:33;26.70;80.00
30250;DHT22;17064;47.974;13.826;2023-08-12T16:13:34;26.60;81.90
30250;DHT22;17064;47.974;13.826;2023-08-12T16:18:35;26.60;82.20
30250;DHT22;17064;47.974;13.826;2023-08-12T16:23:36;26.60;80.10
30250;DHT22;17064;47.974;13.826;2023-08-12T16:28:36;26.70;77.30
30250;DHT22;17064;47.974;13.826;2023-08-12T16:33:37;26.80;80.70
30250;DHT22;17064;47.974;13.826;2023-08-12T16:38:38;26.70;79.60
30250;DHT22;17064;47.974;13.826;2023-08-12T16:43:39;26.70;79.70
30250;DHT22;17064;47.974;13.826;2023-08-12T16:48:40;26.60;80.60
30250;DHT22;17064;47.974;13.826;2023-08-12T16:53:40;26.50;81.30
30250;DHT22;17064;47.974;13.826;2023-08-12T16:58:41;26.50;79.10
30250;DHT22;17064;47.974;13.826;2023-08-12T17:03:41;26.40;80.00
30250;DHT22;17064;47.974;13.826;2023-08-12T17:08:42;26.30;81.20
30250;DHT22;17064;47.974;13.826;2023-08-12T17:13:43;26.20;80.40
30250;DHT22;17064;47.974;13.826;2023-08-12T17:18:44;26.30;78.60
30250;DHT22;17064;47.974;13.826;2023-08-12T17:23:44;26.30;79.50
30250;DHT22;17064;47.974;13.826;2023-08-12T17:28:45;26.30;80.80
30250;DHT22;17064;47.974;13.826;2023-08-12T17:33:46;26.10;84.50
30250;DHT22;17064;47.974;13.826;2023-08-12T17:38:46;25.90;88.40
30250;DHT22;17064;47.974;13.826;2023-08-12T17:43:47;25.70;90.40
30250;DHT22;17064;47.974;13.826;2023-08-12T17:48:48;25.40;90.60
30250;DHT22;17064;47.974;13.826;2023-08-12T17:53:48;25.10;91.30
30250;DHT22;17064;47.974;13.826;2023-08-12T17:58:50;25.00;92.10
30250;DHT22;17064;47.974;13.826;2023-08-12T18:03:50;24.70;91.90
30250;DHT22;17064;47.974;13.826;2023-08-12T18:08:52;24.50;91.90
30250;DHT22;17064;47.974;13.826;2023-08-12T18:13:53;24.20;92.90
30250;DHT22;17064;47.974;13.826;2023-08-12T18:18:53;24.00;94.70
30250;DHT22;17064;47.974;13.826;2023-08-12T18:23:54;23.80;97.20
30250;DHT22;17064;47.974;13.826;2023-08-12T18:28:55;23.60;99.90
30250;DHT22;17064;47.974;13.826;2023-08-12T18:33:56;23.30;99.90
30250;DHT22;17064;47.974;13.826;2023-08-12T18:38:56;23.20;99.90
30250;DHT22;17064;47.974;13.826;2023-08-12T18:43:57;23.10;99.90
30250;DHT22;17064;47.974;13.826;2023-08-12T18:48:58;23.00;99.90
30250;DHT22;17064;47.974;13.826;2023-08-12T18:53:59;22.70;99.90
30250;DHT22;17064;47.974;13.826;2023-08-12T18:59:00;22.50;99.90
30250;DHT22;17064;47.974;13.826;2023-08-12T19:04:00;22.40;99.90
30250;DHT22;17064;47.974;13.826;2023-08-12T19:09:01;22.30;99.90
30250;DHT22;17064;47.974;13.826;2023-08-12T19:14:02;22.20;99.90
30250;DHT22;17064;47.974;13.826;2023-08-12T19:19:03;22.10;99.90
30250;DHT22;17064;47.974;13.826;2023-08-12T19:24:04;22.00;99.90
30250;DHT22;17064;47.974;13.826;2023-08-12T19:29:05;21.80;99.90
30250;DHT22;17064;47.974;13.826;2023-08-12T19:34:06;21.70;99.90
30250;DHT22;17064;47.974;13.826;2023-08-12T19:39:07;21.50;99.90
30250;DHT22;17064;47.974;13.826;2023-08-12T19:44:08;21.30;99.90
30250;DHT22;17064;47.974;13.826;2023-08-12T19:49:09;21.20;99.90
30250;DHT22;17064;47.974;13.826;2023-08-12T19:54:10;21.10;99.90
30250;DHT22;17064;47.974;13.826;2023-08-12T19:59:11;21.10;99.90
30250;DHT22;17064;47.974;13.826;2023-08-12T20:04:14;21.10;99.90
30250;DHT22;17064;47.974;13.826;2023-08-12T20:09:15;21.20;99.90
30250;DHT22;17064;47.974;13.826;2023-08-12T20:14:16;21.20;99.90
30250;DHT22;17064;47.974;13.826;2023-08-12T20:19:18;21.10;99.90
30250;DHT22;17064;47.974;13.826;2023-08-12T20:24:19;21.10;99.90
30250;DHT22;17064;47.974;13.826;2023-08-12T20:29:20;21.10;99.90
30250;DHT22;17064;47.974;13.826;2023-08-12T20:34:21;21.00;99.90
30250;DHT22;17064;47.974;13.826;2023-08-12T20:39:22;20.90;99.90
30250;DHT22;17064;47.974;13.826;2023-08-12T20:44:23;20.80;99.90
30250;DHT22;17064;47.974;13.826;2023-08-12T20:49:23;20.70;99.90
30250;DHT22;17064;47.974;13.826;2023-08-12T20:54:25;20.60;99.90
30250;DHT22;17064;47.974;13.826;2023-08-12T20:59:25;20.60;99.90
30250;DHT22;17064;47.974;13.826;2023-08-12T21:04:26;20.50;99.90
30250;DHT22;17064;47.974;13.826;2023-08-12T21:09:27;20.50;99.90
30250;DHT22;17064;47.974;13.826;2023-08-12T21:14:27;20.60;99.90
30250;DHT22;17064;47.974;13.826;2023-08-12T21:19:28;20.70;99.90
30250;DHT22;17064;47.974;13.826;2023-08-12T21:24:29;20.90;99.90
30250;DHT22;17064;47.974;13.826;2023-08-12T21:29:29;21.00;99.90
30250;DHT22;17064;47.974;13.826;2023-08-12T21:34:30;21.00;99.90
30250;DHT22;17064;47.974;13.826;2023-08-12T21:39:31;21.00;99.90
30250;DHT22;17064;47.974;13.826;2023-08-12T21:44:32;20.90;99.90
30250;DHT22;17064;47.974;13.826;2023-08-12T21:49:32;20.90;99.90
30250;DHT22;17064;47.974;13.826;2023-08-12T21:54:33;20.80;99.90
30250;DHT22;17064;47.974;13.826;2023-08-12T21:59:34;20.70;99.90
30250;DHT22;17064;47.974;13.826;2023-08-12T22:04:34;20.50;99.90
30250;DHT22;17064;47.974;13.826;2023-08-12T22:09:35;20.50;99.90
30250;DHT22;17064;47.974;13.826;2023-08-12T22:14:38;20.40;99.90
30250;DHT22;17064;47.974;13.826;2023-08-12T22:19:39;20.40;99.90
30250;DHT22;17064;47.974;13.826;2023-08-12T22:24:40;20.30;99.90
30250;DHT22;17064;47.974;13.826;2023-08-12T22:29:40;20.20;99.90
30250;DHT22;17064;47.974;13.826;2023-08-12T22:34:41;20.20;99.90
30250;DHT22;17064;47.974;13.826;2023-08-12T22:39:42;20.10;99.90
30250;DHT22;17064;47.974;13.826;2023-08-12T22:44:42;20.00;99.90
30250;DHT22;17064;47.974;13.826;2023-08-12T22:49:43;19.90;99.90
30250;DHT22;17064;47.974;13.826;2023-08-12T22:54:44;19.90;99.90
30250;DHT22;17064;47.974;13.826;2023-08-12T22:59:44;19.70;99.90
30250;DHT22;17064;47.974;13.826;2023-08-12T23:04:46;19.70;99.90
30250;DHT22;17064;47.974;13.826;2023-08-12T23:09:47;19.60;99.90
30250;DHT22;17064;47.974;13.826;2023-08-12T23:14:47;19.60;99.90
30250;DHT22;17064;47.974;13.826;2023-08-12T23:19:48;19.60;99.90
30250;DHT22;17064;47.974;13.826;2023-08-12T23:24:49;19.50;99.90
30250;DHT22;17064;47.974;13.826;2023-08-12T23:29:49;19.50;99.90
30250;DHT22;17064;47.974;13.826;2023-08-12T23:34:50;19.50;99.90
30250;DHT22;17064;47.974;13.826;2023-08-12T23:39:51;19.50;99.90
30250;DHT22;17064;47.974;13.826;2023-08-12T23:44:52;19.50;99.90
30250;DHT22;17064;47.974;13.826;2023-08-12T23:49:53;19.50;99.90
30250;DHT22;17064;47.974;13.826;2023-08-12T23:54:53;19.50;99.90
30250;DHT22;17064;47.974;13.826;2023-08-12T23:59:54;19.40;99.90
